sensor_id;sensor_type;location;lat;lon;timestamp;temperature;humidity
25482;DHT22;13395;50.752;4.268;2022-10-16T00:00:44;15.00;99.90
25482;DHT22;13395;50.752;4.268;2022-10-16T00:03:10;15.10;99.90
25482;DHT22;13395;50.752;4.268;2022-10-16T00:05:40;15.00;99.90
25482;DHT22;13395;50.752;4.268;2022-10-16T00:08:06;15.00;99.90
25482;DHT22;13395;50.752;4.268;2022-10-16T00:10:31;14.90;99.90
25482;DHT22;13395;50.752;4.268;2022-10-16T00:12:57;15.00;99.90
25482;DHT22;13395;50.752;4.268;2022-10-16T00:15:22;14.90;99.90
25482;DHT22;13395;50.752;4.268;2022-10-16T00:17:48;14.90;99.90
25482;DHT22;13395;50.752;4.268;2022-10-16T00:20:13;15.00;99.90
25482;DHT22;13395;50.752;4.268;2022-10-16T00:22:39;15.00;99.90
25482;DHT22;13395;50.752;4.268;2022-10-16T00:25:05;14.90;99.90
25482;DHT22;13395;50.752;4.268;2022-10-16T00:27:31;14.90;99.90
25482;DHT22;13395;50.752;4.268;2022-10-16T00:29:56;14.90;99.90
25482;DHT22;13395;50.752;4.268;2022-10-16T00:32:22;15.00;99.90
25482;DHT22;13395;50.752;4.268;2022-10-16T00:34:47;14.90;99.90
25482;DHT22;13395;50.752;4.268;2022-10-16T00:37:13;14.90;99.90
25482;DHT22;13395;50.752;4.268;2022-10-16T00:39:38;14.80;99.90
25482;DHT22;13395;50.752;4.268;2022-10-16T00:42:04;14.80;99.90
25482;DHT22;13395;50.752;4.268;2022-10-16T00:44:47;14.80;99.90
25482;DHT22;13395;50.752;4.268;2022-10-16T00:47:22;14.80;99.90
25482;DHT22;13395;50.752;4.268;2022-10-16T00:49:49;14.80;99.90
25482;DHT22;13395;50.752;4.268;2022-10-16T00:52:15;14.70;99.90
25482;DHT22;13395;50.752;4.268;2022-10-16T00:54:41;14.70;99.90
25482;DHT22;13395;50.752;4.268;2022-10-16T00:57:07;14.70;99.90
25482;DHT22;13395;50.752;4.268;2022-10-16T00:59:34;14.60;99.90
25482;DHT22;13395;50.752;4.268;2022-10-16T01:02:00;14.50;99.90
25482;DHT22;13395;50.752;4.268;2022-10-16T01:04:26;14.50;99.90
25482;DHT22;13395;50.752;4.268;2022-10-16T01:07:07;14.60;99.90
25482;DHT22;13395;50.752;4.268;2022-10-16T01:09:57;14.60;99.90
25482;DHT22;13395;50.752;4.268;2022-10-16T01:15:19;14.50;99.90
25482;DHT22;13395;50.752;4.268;2022-10-16T01:17:49;14.50;99.90
25482;DHT22;13395;50.752;4.268;2022-10-16T01:20:20;14.60;99.90
25482;DHT22;13395;50.752;4.268;2022-10-16T01:22:54;14.50;99.90
25482;DHT22;13395;50.752;4.268;2022-10-16T01:28:15;14.50;99.90
25482;DHT22;13395;50.752;4.268;2022-10-16T01:30:43;14.60;99.90
25482;DHT22;13395;50.752;4.268;2022-10-16T01:33:14;14.60;99.90
25482;DHT22;13395;50.752;4.268;2022-10-16T01:35:43;14.60;99.90
25482;DHT22;13395;50.752;4.268;2022-10-16T01:38:12;14.60;99.90
25482;DHT22;13395;50.752;4.268;2022-10-16T01:40:41;14.60;99.90
25482;DHT22;13395;50.752;4.268;2022-10-16T01:43:12;14.70;99.90
25482;DHT22;13395;50.752;4.268;2022-10-16T01:45:38;14.50;99.90
25482;DHT22;13395;50.752;4.268;2022-10-16T01:48:06;14.50;99.90
25482;DHT22;13395;50.752;4.268;2022-10-16T01:50:34;14.50;99.90
25482;DHT22;13395;50.752;4.268;2022-10-16T01:53:01;14.50;99.90
25482;DHT22;13395;50.752;4.268;2022-10-16T01:55:29;14.50;99.90
25482;DHT22;13395;50.752;4.268;2022-10-16T01:57:55;14.50;99.90
25482;DHT22;13395;50.752;4.268;2022-10-16T02:00:22;14.50;99.90
25482;DHT22;13395;50.752;4.268;2022-10-16T02:02:48;14.50;99.90
25482;DHT22;13395;50.752;4.268;2022-10-16T02:05:31;14.50;99.90
25482;DHT22;13395;50.752;4.268;2022-10-16T02:07:58;14.50;99.90
25482;DHT22;13395;50.752;4.268;2022-10-16T02:10:24;14.40;99.90
25482;DHT22;13395;50.752;4.268;2022-10-16T02:12:54;14.40;99.90
25482;DHT22;13395;50.752;4.268;2022-10-16T02:15:21;14.40;99.90
25482;DHT22;13395;50.752;4.268;2022-10-16T02:17:47;14.40;99.90
25482;DHT22;13395;50.752;4.268;2022-10-16T02:20:12;14.40;99.90
25482;DHT22;13395;50.752;4.268;2022-10-16T02:22:39;14.50;99.90
25482;DHT22;13395;50.752;4.268;2022-10-16T02:25:10;14.50;99.90
25482;DHT22;13395;50.752;4.268;2022-10-16T02:30:06;14.50;99.90
25482;DHT22;13395;50.752;4.268;2022-10-16T02:32:33;14.50;99.90
25482;DHT22;13395;50.752;4.268;2022-10-16T02:34:59;14.50;99.90
25482;DHT22;13395;50.752;4.268;2022-10-16T02:37:25;14.50;99.90
25482;DHT22;13395;50.752;4.268;2022-10-16T02:39:51;14.50;99.90
25482;DHT22;13395;50.752;4.268;2022-10-16T02:42:18;14.60;99.90
25482;DHT22;13395;50.752;4.268;2022-10-16T02:44:43;14.60;99.90
25482;DHT22;13395;50.752;4.268;2022-10-16T02:47:09;14.50;99.90
25482;DHT22;13395;50.752;4.268;2022-10-16T02:49:34;14.50;99.90
25482;DHT22;13395;50.752;4.268;2022-10-16T02:52:00;14.50;99.90
25482;DHT22;13395;50.752;4.268;2022-10-16T02:54:25;14.50;99.90
25482;DHT22;13395;50.752;4.268;2022-10-16T02:56:51;14.40;99.90
25482;DHT22;13395;50.752;4.268;2022-10-16T02:59:17;14.40;99.90
25482;DHT22;13395;50.752;4.268;2022-10-16T03:01:42;14.40;99.90
25482;DHT22;13395;50.752;4.268;2022-10-16T03:04:08;14.40;99.90
25482;DHT22;13395;50.752;4.268;2022-10-16T03:06:33;14.50;99.90
25482;DHT22;13395;50.752;4.268;2022-10-16T03:08:59;14.60;99.90
25482;DHT22;13395;50.752;4.268;2022-10-16T03:11:24;14.50;99.90
25482;DHT22;13395;50.752;4.268;2022-10-16T03:13:51;14.60;99.90
25482;DHT22;13395;50.752;4.268;2022-10-16T03:16:17;14.50;99.90
25482;DHT22;13395;50.752;4.268;2022-10-16T03:18:42;14.50;99.90
25482;DHT22;13395;50.752;4.268;2022-10-16T03:21:08;14.40;99.90
25482;DHT22;13395;50.752;4.268;2022-10-16T03:23:33;14.50;99.90
25482;DHT22;13395;50.752;4.268;2022-10-16T03:25:59;14.50;99.90
25482;DHT22;13395;50.752;4.268;2022-10-16T03:28:24;14.50;99.90
25482;DHT22;13395;50.752;4.268;2022-10-16T03:30:50;14.60;99.90
25482;DHT22;13395;50.752;4.268;2022-10-16T03:33:15;14.60;99.90
25482;DHT22;13395;50.752;4.268;2022-10-16T03:35:41;14.50;99.90
25482;DHT22;13395;50.752;4.268;2022-10-16T03:38:06;14.50;99.90
25482;DHT22;13395;50.752;4.268;2022-10-16T03:40:32;14.40;99.90
25482;DHT22;13395;50.752;4.268;2022-10-16T03:42:58;14.40;99.90
25482;DHT22;13395;50.752;4.268;2022-10-16T03:45:23;14.50;99.90
25482;DHT22;13395;50.752;4.268;2022-10-16T03:47:49;14.60;99.90
25482;DHT22;13395;50.752;4.268;2022-10-16T03:50:14;14.60;99.90
25482;DHT22;13395;50.752;4.268;2022-10-16T03:52:40;14.50;99.90
25482;DHT22;13395;50.752;4.268;2022-10-16T03:55:06;14.40;99.90
25482;DHT22;13395;50.752;4.268;2022-10-16T03:57:31;14.40;99.90
25482;DHT22;13395;50.752;4.268;2022-10-16T03:59:57;14.50;99.90
25482;DHT22;13395;50.752;4.268;2022-10-16T04:02:22;14.50;99.90
25482;DHT22;13395;50.752;4.268;2022-10-16T04:04:48;14.40;99.90
25482;DHT22;13395;50.752;4.268;2022-10-16T04:07:13;14.50;99.90
25482;DHT22;13395;50.752;4.268;2022-10-16T04:09:39;14.50;99.90
25482;DHT22;13395;50.752;4.268;2022-10-16T04:12:04;14.40;99.90
25482;DHT22;13395;50.752;4.268;2022-10-16T04:14:30;14.50;99.90
25482;DHT22;13395;50.752;4.268;2022-10-16T04:16:55;14.50;99.90
25482;DHT22;13395;50.752;4.268;2022-10-16T04:19:21;14.50;99.90
25482;DHT22;13395;50.752;4.268;2022-10-16T04:21:46;14.30;99.90
25482;DHT22;13395;50.752;4.268;2022-10-16T04:24:12;14.30;99.90
25482;DHT22;13395;50.752;4.268;2022-10-16T04:26:37;14.40;99.90
25482;DHT22;13395;50.752;4.268;2022-10-16T04:29:03;14.50;99.90
25482;DHT22;13395;50.752;4.268;2022-10-16T04:31:29;14.50;99.90
25482;DHT22;13395;50.752;4.268;2022-10-16T04:33:55;14.60;99.90
25482;DHT22;13395;50.752;4.268;2022-10-16T04:36:20;14.60;99.90
25482;DHT22;13395;50.752;4.268;2022-10-16T04:38:46;14.50;99.90
25482;DHT22;13395;50.752;4.268;2022-10-16T04:41:12;14.50;99.90
25482;DHT22;13395;50.752;4.268;2022-10-16T04:43:37;14.60;99.90
25482;DHT22;13395;50.752;4.268;2022-10-16T04:46:03;14.50;99.90
25482;DHT22;13395;50.752;4.268;2022-10-16T04:48:30;14.40;99.90
25482;DHT22;13395;50.752;4.268;2022-10-16T04:50:55;14.40;99.90
25482;DHT22;13395;50.752;4.268;2022-10-16T04:53:21;14.40;99.90
25482;DHT22;13395;50.752;4.268;2022-10-16T04:55:46;14.50;99.90
25482;DHT22;13395;50.752;4.268;2022-10-16T04:58:12;14.50;99.90
25482;DHT22;13395;50.752;4.268;2022-10-16T05:00:37;14.30;99.90
25482;DHT22;13395;50.752;4.268;2022-10-16T05:03:03;14.30;99.90
25482;DHT22;13395;50.752;4.268;2022-10-16T05:05:32;14.30;99.90
25482;DHT22;13395;50.752;4.268;2022-10-16T05:07:58;14.40;99.90
25482;DHT22;13395;50.752;4.268;2022-10-16T05:10:24;14.40;99.90
25482;DHT22;13395;50.752;4.268;2022-10-16T05:12:49;14.40;99.90
25482;DHT22;13395;50.752;4.268;2022-10-16T05:15:16;14.40;99.90
25482;DHT22;13395;50.752;4.268;2022-10-16T05:17:42;14.40;99.90
25482;DHT22;13395;50.752;4.268;2022-10-16T05:20:07;14.30;99.90
25482;DHT22;13395;50.752;4.268;2022-10-16T05:22:33;14.30;99.90
25482;DHT22;13395;50.752;4.268;2022-10-16T05:24:58;14.30;99.90
25482;DHT22;13395;50.752;4.268;2022-10-16T05:27:24;14.20;99.90
25482;DHT22;13395;50.752;4.268;2022-10-16T05:29:49;14.30;99.90
25482;DHT22;13395;50.752;4.268;2022-10-16T05:32:15;14.20;99.90
25482;DHT22;13395;50.752;4.268;2022-10-16T05:34:41;14.20;99.90
25482;DHT22;13395;50.752;4.268;2022-10-16T05:37:07;14.20;99.90
25482;DHT22;13395;50.752;4.268;2022-10-16T05:39:32;14.30;99.90
25482;DHT22;13395;50.752;4.268;2022-10-16T05:41:58;14.20;99.90
25482;DHT22;13395;50.752;4.268;2022-10-16T05:44:23;14.20;99.90
25482;DHT22;13395;50.752;4.268;2022-10-16T05:46:49;14.20;99.90
25482;DHT22;13395;50.752;4.268;2022-10-16T05:49:14;14.10;99.90
25482;DHT22;13395;50.752;4.268;2022-10-16T05:51:40;14.10;99.90
25482;DHT22;13395;50.752;4.268;2022-10-16T05:54:06;14.10;99.90
25482;DHT22;13395;50.752;4.268;2022-10-16T05:56:32;14.10;99.90
25482;DHT22;13395;50.752;4.268;2022-10-16T05:58:57;14.10;99.90
25482;DHT22;13395;50.752;4.268;2022-10-16T06:01:23;14.00;99.90
25482;DHT22;13395;50.752;4.268;2022-10-16T06:03:50;14.00;99.90
25482;DHT22;13395;50.752;4.268;2022-10-16T06:06:16;13.90;99.90
25482;DHT22;13395;50.752;4.268;2022-10-16T06:08:42;13.90;99.90
25482;DHT22;13395;50.752;4.268;2022-10-16T06:11:09;14.00;99.90
25482;DHT22;13395;50.752;4.268;2022-10-16T06:13:35;14.10;99.90
25482;DHT22;13395;50.752;4.268;2022-10-16T06:16:01;14.10;99.90
25482;DHT22;13395;50.752;4.268;2022-10-16T06:18:28;14.20;99.90
25482;DHT22;13395;50.752;4.268;2022-10-16T06:20:54;14.10;99.90
25482;DHT22;13395;50.752;4.268;2022-10-16T06:23:19;14.20;99.90
25482;DHT22;13395;50.752;4.268;2022-10-16T06:25:45;14.10;99.90
25482;DHT22;13395;50.752;4.268;2022-10-16T06:28:10;14.10;99.90
25482;DHT22;13395;50.752;4.268;2022-10-16T06:30:36;14.10;99.90
25482;DHT22;13395;50.752;4.268;2022-10-16T06:33:02;14.10;99.90
25482;DHT22;13395;50.752;4.268;2022-10-16T06:35:27;14.10;99.90
25482;DHT22;13395;50.752;4.268;2022-10-16T06:37:54;14.20;99.90
25482;DHT22;13395;50.752;4.268;2022-10-16T06:40:20;14.40;99.90
25482;DHT22;13395;50.752;4.268;2022-10-16T06:42:45;14.40;99.90
25482;DHT22;13395;50.752;4.268;2022-10-16T06:45:11;14.40;99.90
25482;DHT22;13395;50.752;4.268;2022-10-16T06:47:36;14.60;99.90
25482;DHT22;13395;50.752;4.268;2022-10-16T06:50:02;14.70;99.90
25482;DHT22;13395;50.752;4.268;2022-10-16T06:52:28;14.80;99.90
25482;DHT22;13395;50.752;4.268;2022-10-16T06:54:54;15.00;99.90
25482;DHT22;13395;50.752;4.268;2022-10-16T06:57:19;15.00;99.90
25482;DHT22;13395;50.752;4.268;2022-10-16T06:59:45;15.10;99.90
25482;DHT22;13395;50.752;4.268;2022-10-16T07:02:10;15.10;99.90
25482;DHT22;13395;50.752;4.268;2022-10-16T07:04:36;15.20;99.90
25482;DHT22;13395;50.752;4.268;2022-10-16T07:07:02;15.20;99.90
25482;DHT22;13395;50.752;4.268;2022-10-16T07:09:27;15.30;99.90
25482;DHT22;13395;50.752;4.268;2022-10-16T07:11:53;15.30;99.90
25482;DHT22;13395;50.752;4.268;2022-10-16T07:14:19;15.40;99.90
25482;DHT22;13395;50.752;4.268;2022-10-16T07:16:44;15.40;99.90
25482;DHT22;13395;50.752;4.268;2022-10-16T07:19:10;15.40;99.90
25482;DHT22;13395;50.752;4.268;2022-10-16T07:21:37;15.40;99.90
25482;DHT22;13395;50.752;4.268;2022-10-16T07:24:04;15.50;99.90
25482;DHT22;13395;50.752;4.268;2022-10-16T07:26:31;15.70;99.90
25482;DHT22;13395;50.752;4.268;2022-10-16T07:28:57;16.10;99.90
25482;DHT22;13395;50.752;4.268;2022-10-16T07:31:23;17.10;99.90
25482;DHT22;13395;50.752;4.268;2022-10-16T07:33:49;18.20;99.90
25482;DHT22;13395;50.752;4.268;2022-10-16T07:36:15;19.00;99.90
25482;DHT22;13395;50.752;4.268;2022-10-16T07:38:42;19.70;99.90
25482;DHT22;13395;50.752;4.268;2022-10-16T07:41:09;20.60;99.90
25482;DHT22;13395;50.752;4.268;2022-10-16T07:43:34;21.60;99.90
25482;DHT22;13395;50.752;4.268;2022-10-16T07:46:00;23.20;99.90
25482;DHT22;13395;50.752;4.268;2022-10-16T07:48:30;24.10;99.90
25482;DHT22;13395;50.752;4.268;2022-10-16T07:50:57;24.60;99.90
25482;DHT22;13395;50.752;4.268;2022-10-16T07:53:22;25.00;99.90
25482;DHT22;13395;50.752;4.268;2022-10-16T07:55:48;25.00;99.90
25482;DHT22;13395;50.752;4.268;2022-10-16T07:58:13;24.80;99.90
25482;DHT22;13395;50.752;4.268;2022-10-16T08:00:38;24.50;99.90
25482;DHT22;13395;50.752;4.268;2022-10-16T08:03:04;23.80;99.90
25482;DHT22;13395;50.752;4.268;2022-10-16T08:05:30;23.10;99.90
25482;DHT22;13395;50.752;4.268;2022-10-16T08:07:56;23.50;99.90
25482;DHT22;13395;50.752;4.268;2022-10-16T08:10:23;24.10;99.90
25482;DHT22;13395;50.752;4.268;2022-10-16T08:12:50;24.40;99.90
25482;DHT22;13395;50.752;4.268;2022-10-16T08:15:16;24.80;99.90
25482;DHT22;13395;50.752;4.268;2022-10-16T08:17:41;25.20;99.90
25482;DHT22;13395;50.752;4.268;2022-10-16T08:20:07;26.10;98.60
25482;DHT22;13395;50.752;4.268;2022-10-16T08:22:33;27.50;97.30
25482;DHT22;13395;50.752;4.268;2022-10-16T08:24:58;27.80;95.40
25482;DHT22;13395;50.752;4.268;2022-10-16T08:27:24;28.00;93.90
25482;DHT22;13395;50.752;4.268;2022-10-16T08:29:49;28.40;92.50
25482;DHT22;13395;50.752;4.268;2022-10-16T08:32:15;28.30;92.50
25482;DHT22;13395;50.752;4.268;2022-10-16T08:34:40;28.00;92.20
25482;DHT22;13395;50.752;4.268;2022-10-16T08:37:06;28.10;90.90
25482;DHT22;13395;50.752;4.268;2022-10-16T08:39:33;27.80;90.60
25482;DHT22;13395;50.752;4.268;2022-10-16T08:47:00;27.10;92.20
25482;DHT22;13395;50.752;4.268;2022-10-16T08:49:27;27.70;91.00
25482;DHT22;13395;50.752;4.268;2022-10-16T08:51:54;28.50;91.30
25482;DHT22;13395;50.752;4.268;2022-10-16T08:54:23;29.00;89.20
25482;DHT22;13395;50.752;4.268;2022-10-16T08:56:53;29.80;85.90
25482;DHT22;13395;50.752;4.268;2022-10-16T08:59:19;29.80;83.90
25482;DHT22;13395;50.752;4.268;2022-10-16T09:01:45;30.10;83.40
25482;DHT22;13395;50.752;4.268;2022-10-16T09:12:47;31.40;77.80
25482;DHT22;13395;50.752;4.268;2022-10-16T09:19:50;30.70;77.20
25482;DHT22;13395;50.752;4.268;2022-10-16T09:22:16;30.20;77.20
25482;DHT22;13395;50.752;4.268;2022-10-16T09:24:43;30.10;80.10
25482;DHT22;13395;50.752;4.268;2022-10-16T09:27:11;30.90;76.00
25482;DHT22;13395;50.752;4.268;2022-10-16T09:29:38;30.90;75.20
25482;DHT22;13395;50.752;4.268;2022-10-16T09:32:10;31.10;75.20
25482;DHT22;13395;50.752;4.268;2022-10-16T09:34:37;31.90;74.30
25482;DHT22;13395;50.752;4.268;2022-10-16T09:37:09;31.90;74.00
25482;DHT22;13395;50.752;4.268;2022-10-16T09:39:54;30.10;73.90
25482;DHT22;13395;50.752;4.268;2022-10-16T09:42:20;28.50;78.80
25482;DHT22;13395;50.752;4.268;2022-10-16T09:44:47;27.30;81.30
25482;DHT22;13395;50.752;4.268;2022-10-16T09:47:18;26.50;85.00
25482;DHT22;13395;50.752;4.268;2022-10-16T09:52:18;26.80;85.90
25482;DHT22;13395;50.752;4.268;2022-10-16T09:54:57;27.10;85.50
25482;DHT22;13395;50.752;4.268;2022-10-16T09:57:23;27.50;85.80
25482;DHT22;13395;50.752;4.268;2022-10-16T09:59:50;26.90;84.70
25482;DHT22;13395;50.752;4.268;2022-10-16T10:02:19;25.80;87.30
25482;DHT22;13395;50.752;4.268;2022-10-16T10:04:52;24.90;89.50
25482;DHT22;13395;50.752;4.268;2022-10-16T10:07:42;24.40;90.20
25482;DHT22;13395;50.752;4.268;2022-10-16T10:10:05;24.00;91.30
25482;DHT22;13395;50.752;4.268;2022-10-16T10:12:32;23.30;92.50
25482;DHT22;13395;50.752;4.268;2022-10-16T10:15:03;22.80;93.50
25482;DHT22;13395;50.752;4.268;2022-10-16T10:17:29;22.60;95.30
25482;DHT22;13395;50.752;4.268;2022-10-16T10:19:56;22.50;96.40
25482;DHT22;13395;50.752;4.268;2022-10-16T10:22:24;22.30;95.90
25482;DHT22;13395;50.752;4.268;2022-10-16T10:25:00;22.30;96.20
25482;DHT22;13395;50.752;4.268;2022-10-16T10:27:36;22.30;96.50
25482;DHT22;13395;50.752;4.268;2022-10-16T10:40:14;23.60;95.90
25482;DHT22;13395;50.752;4.268;2022-10-16T10:42:49;25.30;93.90
25482;DHT22;13395;50.752;4.268;2022-10-16T10:58:16;31.30;75.80
25482;DHT22;13395;50.752;4.268;2022-10-16T11:04:17;29.70;78.30
25482;DHT22;13395;50.752;4.268;2022-10-16T11:08:35;28.40;79.60
25482;DHT22;13395;50.752;4.268;2022-10-16T11:11:02;28.50;81.10
25482;DHT22;13395;50.752;4.268;2022-10-16T11:13:43;28.50;82.10
25482;DHT22;13395;50.752;4.268;2022-10-16T11:16:13;28.10;84.80
25482;DHT22;13395;50.752;4.268;2022-10-16T11:18:48;27.50;81.30
25482;DHT22;13395;50.752;4.268;2022-10-16T11:21:15;26.80;83.80
25482;DHT22;13395;50.752;4.268;2022-10-16T11:23:44;26.30;85.40
25482;DHT22;13395;50.752;4.268;2022-10-16T11:26:14;25.80;87.20
25482;DHT22;13395;50.752;4.268;2022-10-16T11:28:43;25.40;88.30
25482;DHT22;13395;50.752;4.268;2022-10-16T11:31:17;25.20;90.70
25482;DHT22;13395;50.752;4.268;2022-10-16T11:36:20;24.50;90.30
25482;DHT22;13395;50.752;4.268;2022-10-16T11:41:36;24.20;88.60
25482;DHT22;13395;50.752;4.268;2022-10-16T11:46:34;23.70;89.90
25482;DHT22;13395;50.752;4.268;2022-10-16T11:49:09;23.40;90.70
25482;DHT22;13395;50.752;4.268;2022-10-16T11:51:38;23.20;91.90
25482;DHT22;13395;50.752;4.268;2022-10-16T11:54:12;23.10;91.90
25482;DHT22;13395;50.752;4.268;2022-10-16T11:56:40;23.20;92.20
25482;DHT22;13395;50.752;4.268;2022-10-16T12:01:56;23.50;91.70
25482;DHT22;13395;50.752;4.268;2022-10-16T12:04:42;24.00;92.10
25482;DHT22;13395;50.752;4.268;2022-10-16T12:07:24;24.20;91.00
25482;DHT22;13395;50.752;4.268;2022-10-16T12:09:49;24.50;90.90
25482;DHT22;13395;50.752;4.268;2022-10-16T12:15:00;24.50;88.60
25482;DHT22;13395;50.752;4.268;2022-10-16T12:17:27;24.20;90.60
25482;DHT22;13395;50.752;4.268;2022-10-16T12:20:00;24.10;90.50
25482;DHT22;13395;50.752;4.268;2022-10-16T12:22:27;24.60;92.10
25482;DHT22;13395;50.752;4.268;2022-10-16T12:24:53;25.00;90.90
25482;DHT22;13395;50.752;4.268;2022-10-16T12:27:21;25.90;88.80
25482;DHT22;13395;50.752;4.268;2022-10-16T12:29:48;26.20;87.00
25482;DHT22;13395;50.752;4.268;2022-10-16T12:32:38;26.20;87.70
25482;DHT22;13395;50.752;4.268;2022-10-16T12:35:05;26.00;87.30
25482;DHT22;13395;50.752;4.268;2022-10-16T12:37:33;25.80;89.80
25482;DHT22;13395;50.752;4.268;2022-10-16T12:39:59;25.60;88.90
25482;DHT22;13395;50.752;4.268;2022-10-16T12:44:55;25.30;89.50
25482;DHT22;13395;50.752;4.268;2022-10-16T12:49:55;25.20;90.90
25482;DHT22;13395;50.752;4.268;2022-10-16T12:54:58;24.80;90.70
25482;DHT22;13395;50.752;4.268;2022-10-16T12:57:36;24.60;90.20
25482;DHT22;13395;50.752;4.268;2022-10-16T13:08:11;24.60;91.70
25482;DHT22;13395;50.752;4.268;2022-10-16T13:10:40;24.30;91.30
25482;DHT22;13395;50.752;4.268;2022-10-16T13:16:04;23.80;92.30
25482;DHT22;13395;50.752;4.268;2022-10-16T13:18:35;23.70;92.10
25482;DHT22;13395;50.752;4.268;2022-10-16T13:26:23;23.30;93.00
25482;DHT22;13395;50.752;4.268;2022-10-16T13:28:51;23.40;93.20
25482;DHT22;13395;50.752;4.268;2022-10-16T13:31:21;23.70;93.70
25482;DHT22;13395;50.752;4.268;2022-10-16T13:33:55;24.40;93.20
25482;DHT22;13395;50.752;4.268;2022-10-16T13:36:33;24.80;92.00
25482;DHT22;13395;50.752;4.268;2022-10-16T13:42:01;24.00;91.90
25482;DHT22;13395;50.752;4.268;2022-10-16T13:44:28;23.70;92.90
25482;DHT22;13395;50.752;4.268;2022-10-16T13:46:58;23.50;91.30
25482;DHT22;13395;50.752;4.268;2022-10-16T13:49:24;23.30;91.20
25482;DHT22;13395;50.752;4.268;2022-10-16T13:51:53;23.20;92.30
25482;DHT22;13395;50.752;4.268;2022-10-16T13:54:19;23.00;92.00
25482;DHT22;13395;50.752;4.268;2022-10-16T13:56:45;23.10;93.10
25482;DHT22;13395;50.752;4.268;2022-10-16T13:59:26;23.30;93.20
25482;DHT22;13395;50.752;4.268;2022-10-16T14:01:54;23.10;94.10
25482;DHT22;13395;50.752;4.268;2022-10-16T14:04:21;23.10;93.50
25482;DHT22;13395;50.752;4.268;2022-10-16T14:06:49;23.00;93.80
25482;DHT22;13395;50.752;4.268;2022-10-16T14:09:25;22.80;93.40
25482;DHT22;13395;50.752;4.268;2022-10-16T14:14:20;22.70;94.30
25482;DHT22;13395;50.752;4.268;2022-10-16T14:16:46;22.70;95.50
25482;DHT22;13395;50.752;4.268;2022-10-16T14:19:13;22.80;96.00
25482;DHT22;13395;50.752;4.268;2022-10-16T14:21:40;22.90;95.00
25482;DHT22;13395;50.752;4.268;2022-10-16T14:24:12;22.60;94.10
25482;DHT22;13395;50.752;4.268;2022-10-16T14:26:44;22.60;94.40
25482;DHT22;13395;50.752;4.268;2022-10-16T14:29:14;22.60;96.30
25482;DHT22;13395;50.752;4.268;2022-10-16T14:31:40;22.70;95.70
25482;DHT22;13395;50.752;4.268;2022-10-16T14:36:50;22.50;94.60
25482;DHT22;13395;50.752;4.268;2022-10-16T14:39:19;22.20;94.90
25482;DHT22;13395;50.752;4.268;2022-10-16T14:41:47;22.40;95.30
25482;DHT22;13395;50.752;4.268;2022-10-16T14:44:13;22.30;95.60
25482;DHT22;13395;50.752;4.268;2022-10-16T14:46:39;22.30;95.10
25482;DHT22;13395;50.752;4.268;2022-10-16T14:51:34;22.10;96.00
25482;DHT22;13395;50.752;4.268;2022-10-16T14:53:59;22.00;96.50
25482;DHT22;13395;50.752;4.268;2022-10-16T14:56:31;22.10;96.60
25482;DHT22;13395;50.752;4.268;2022-10-16T14:58:59;22.10;96.80
25482;DHT22;13395;50.752;4.268;2022-10-16T15:01:25;22.10;96.60
25482;DHT22;13395;50.752;4.268;2022-10-16T15:03:51;22.20;97.40
25482;DHT22;13395;50.752;4.268;2022-10-16T15:06:19;22.20;99.40
25482;DHT22;13395;50.752;4.268;2022-10-16T15:08:44;22.20;99.60
25482;DHT22;13395;50.752;4.268;2022-10-16T15:11:16;22.20;99.90
25482;DHT22;13395;50.752;4.268;2022-10-16T15:13:43;22.10;99.00
25482;DHT22;13395;50.752;4.268;2022-10-16T15:16:12;22.20;99.90
25482;DHT22;13395;50.752;4.268;2022-10-16T15:18:38;22.00;99.90
25482;DHT22;13395;50.752;4.268;2022-10-16T15:21:03;22.10;99.40
25482;DHT22;13395;50.752;4.268;2022-10-16T15:23:29;22.00;99.80
25482;DHT22;13395;50.752;4.268;2022-10-16T15:25:55;21.90;99.90
25482;DHT22;13395;50.752;4.268;2022-10-16T15:28:21;21.80;99.90
25482;DHT22;13395;50.752;4.268;2022-10-16T15:30:49;21.60;99.90
25482;DHT22;13395;50.752;4.268;2022-10-16T15:33:15;21.50;99.90
25482;DHT22;13395;50.752;4.268;2022-10-16T15:35:41;21.50;99.90
25482;DHT22;13395;50.752;4.268;2022-10-16T15:38:09;21.40;99.90
25482;DHT22;13395;50.752;4.268;2022-10-16T15:40:36;21.20;99.90
25482;DHT22;13395;50.752;4.268;2022-10-16T15:43:02;21.20;99.90
25482;DHT22;13395;50.752;4.268;2022-10-16T15:45:27;21.20;99.90
25482;DHT22;13395;50.752;4.268;2022-10-16T15:47:53;21.10;99.90
25482;DHT22;13395;50.752;4.268;2022-10-16T15:50:18;21.00;99.90
25482;DHT22;13395;50.752;4.268;2022-10-16T15:52:44;20.90;99.90
25482;DHT22;13395;50.752;4.268;2022-10-16T15:55:10;20.80;99.90
25482;DHT22;13395;50.752;4.268;2022-10-16T15:57:36;20.80;99.90
25482;DHT22;13395;50.752;4.268;2022-10-16T16:00:07;20.80;99.90
25482;DHT22;13395;50.752;4.268;2022-10-16T16:02:33;20.70;99.90
25482;DHT22;13395;50.752;4.268;2022-10-16T16:04:58;20.60;99.90
25482;DHT22;13395;50.752;4.268;2022-10-16T16:07:24;20.50;99.90
25482;DHT22;13395;50.752;4.268;2022-10-16T16:09:49;20.40;99.90
25482;DHT22;13395;50.752;4.268;2022-10-16T16:12:15;20.30;99.90
25482;DHT22;13395;50.752;4.268;2022-10-16T16:14:40;20.20;99.90
25482;DHT22;13395;50.752;4.268;2022-10-16T16:17:06;20.20;99.90
25482;DHT22;13395;50.752;4.268;2022-10-16T16:19:32;20.20;99.90
25482;DHT22;13395;50.752;4.268;2022-10-16T16:21:58;20.10;99.90
25482;DHT22;13395;50.752;4.268;2022-10-16T16:24:23;20.10;99.90
25482;DHT22;13395;50.752;4.268;2022-10-16T16:26:49;20.10;99.90
25482;DHT22;13395;50.752;4.268;2022-10-16T16:29:14;20.10;99.90
25482;DHT22;13395;50.752;4.268;2022-10-16T16:31:41;20.00;99.90
25482;DHT22;13395;50.752;4.268;2022-10-16T16:34:07;20.00;99.90
25482;DHT22;13395;50.752;4.268;2022-10-16T16:36:33;19.80;99.90
25482;DHT22;13395;50.752;4.268;2022-10-16T16:38:58;19.80;99.90
25482;DHT22;13395;50.752;4.268;2022-10-16T16:41:25;19.70;99.90
25482;DHT22;13395;50.752;4.268;2022-10-16T16:43:51;19.60;99.90
25482;DHT22;13395;50.752;4.268;2022-10-16T16:46:17;19.60;99.90
25482;DHT22;13395;50.752;4.268;2022-10-16T16:48:43;19.50;99.90
25482;DHT22;13395;50.752;4.268;2022-10-16T16:51:10;19.40;99.90
25482;DHT22;13395;50.752;4.268;2022-10-16T16:53:40;19.40;99.90
25482;DHT22;13395;50.752;4.268;2022-10-16T16:56:06;19.40;99.90
25482;DHT22;13395;50.752;4.268;2022-10-16T16:58:32;19.50;99.90
25482;DHT22;13395;50.752;4.268;2022-10-16T17:00:58;19.50;99.90
25482;DHT22;13395;50.752;4.268;2022-10-16T17:03:29;19.50;99.90
25482;DHT22;13395;50.752;4.268;2022-10-16T17:06:02;19.30;99.90
25482;DHT22;13395;50.752;4.268;2022-10-16T17:08:28;19.20;99.90
25482;DHT22;13395;50.752;4.268;2022-10-16T17:10:55;19.10;99.90
25482;DHT22;13395;50.752;4.268;2022-10-16T17:13:22;19.10;99.90
25482;DHT22;13395;50.752;4.268;2022-10-16T17:15:49;18.90;99.90